logo dgac
Miércoles 22 de Mayo del 2019
Buscar por aerodromo o helipuerto
Ingrese nombre de aeródromo, localidad o designador OACI:
METAR del 22-05-2019 a las 10:00 UTC
METAR SCON 221000Z AUTO 22007KT 180V240 9999 OVC019/// 08/05 Q1027
Nan: AUTO
Viento: dirección 220 grados, velocidad 7 nudos
Viento con dirección variable entre 180 y 240 grados
Visibilidad: 10 km o más
Nan: OVC019///
Temperatura: 8 °C
Rocío: 5 °C
Humedad_relativa: 81%
Presión: 1027 hPa
METAR del 22-05-2019 a las 09:00 UTC
METAR SCON 220900Z AUTO 25004KT 220V280 9999 OVC019/// 07/05 Q1027
Nan: AUTO
Viento: dirección 250 grados, velocidad 4 nudos
Viento con dirección variable entre 220 y 280 grados
Visibilidad: 10 km o más
Nan: OVC019///
Temperatura: 7 °C
Rocío: 5 °C
Humedad_relativa: 87%
Presión: 1027 hPa
METAR del 22-05-2019 a las 08:00 UTC
METAR SCON 220800Z AUTO VRB02KT 9999 OVC018/// 07/05 Q1027
Nan: AUTO
Viento: dirección variable, velocidad 2 nudos
Visibilidad: 10 km o más
Nan: OVC018///
Temperatura: 7 °C
Rocío: 5 °C
Humedad_relativa: 87%
Presión: 1027 hPa
METAR del 22-05-2019 a las 07:00 UTC
METAR SCON 220700Z AUTO 25004KT 210V290 9999 OVC018/// 07/05 Q1028
Nan: AUTO
Viento: dirección 250 grados, velocidad 4 nudos
Viento con dirección variable entre 210 y 290 grados
Visibilidad: 10 km o más
Nan: OVC018///
Temperatura: 7 °C
Rocío: 5 °C
Humedad_relativa: 87%
Presión: 1028 hPa
METAR del 22-05-2019 a las 06:00 UTC
METAR SCON 220600Z AUTO VRB01KT 9999 OVC017/// 05/05 Q1028
Nan: AUTO
Viento: dirección variable, velocidad 1 nudos
Visibilidad: 10 km o más
Nan: OVC017///
Temperatura: 5 °C
Rocío: 5 °C
Humedad_relativa: 100%
Presión: 1028 hPa
METAR del 22-05-2019 a las 06:00 UTC
METAR SCON 220600Z AUTO VRB01KT 9999 OVC017/// 05/05 Q1028
Nan: AUTO
Viento: dirección variable, velocidad 1 nudos
Visibilidad: 10 km o más
Nan: OVC017///
Temperatura: 5 °C
Rocío: 5 °C
Humedad_relativa: 100%
Presión: 1028 hPa
METAR del 22-05-2019 a las 05:00 UTC
METAR SCON 220500Z AUTO 00000KT 9999 OVC018/// 05/05 Q1028
Nan: AUTO
Visibilidad: 10 km o más
Nan: OVC018///
Temperatura: 5 °C
Rocío: 5 °C
Humedad_relativa: 100%
Presión: 1028 hPa
METAR del 22-05-2019 a las 05:00 UTC
METAR SCON 220500Z AUTO 00000KT 9999 OVC018/// 05/05 Q1028
Nan: AUTO
Visibilidad: 10 km o más
Nan: OVC018///
Temperatura: 5 °C
Rocío: 5 °C
Humedad_relativa: 100%
Presión: 1028 hPa
METAR del 22-05-2019 a las 04:00 UTC
METAR SCON 220400Z AUTO 27003KT 9999 OVC018/// 06/05 Q1028
Nan: AUTO
Viento: dirección 270 grados, velocidad 3 nudos
Visibilidad: 10 km o más
Nan: OVC018///
Temperatura: 6 °C
Rocío: 5 °C
Humedad_relativa: 93%
Presión: 1028 hPa
METAR del 22-05-2019 a las 04:00 UTC
METAR SCON 220400Z AUTO 27003KT 9999 OVC018/// 06/05 Q1028
Nan: AUTO
Viento: dirección 270 grados, velocidad 3 nudos
Visibilidad: 10 km o más
Nan: OVC018///
Temperatura: 6 °C
Rocío: 5 °C
Humedad_relativa: 93%
Presión: 1028 hPa